Aeroporto :
LOGIN :

Iscrizione | Disclaimer

   EN    FR    IT 

 










Sommario :    VFR   VFR Marginale   IFR   IFR Intensivo   IFR Molto Intensivo
Visibilità : 
Base nubi : 
>= 8 km
>= 3000ft
5 / 8 km
1000 / 3000 ft
1500m / 5 km
500 / 1000 ft
800 / 1500m
200 / 500 ft
< 800m
< 200 ft
Simboli :   Temporali  Nebbia  Neve Forte  Precipitazioni Forti  Vento > 20 kt
SIGMETs :   Varie  Temporali  Ghiacco  Turbolenza  Onda orograficha  Ceneri Vulcaniche






- Altitudine del aeroporto : 1822 ft


ETSL - Lechfeld AB

ULTIMO METAR :
  • 200643Z 02005KT 7000 FEW015 BKN025 02/01 Q1015 WHT BLU TEMPO GRN

METARs OBSOLETI :
  • 200620Z 02005KT 8000 FEW015 BKN025 02/01 Q1015 BLU BLU TEMPO GRN
  • 200520Z 04004KT 9999 FEW015 BKN025 02/02 Q1015 BLU
  • 200420Z 06002KT 9999 SCT015 BKN025 02/01 Q1015 BLU

TAF TAF ETSL
Valido dal 20 a 06 ore il 20 a 15 ore UTC


200520Z 2006/2015 05005KT 9999 NSW SCT010 BKN025
TEMPO 2006/2011 VRB03KT 4000 BR SCT006 BKN008
PROB30 2006/2009 VRB03KT 0100 FG VV001 BY ETGL



MetMap, La meteo Aeronautica in un colpo d'occhio ! - Copyright ORBIFLY Dicembre 2007 - Disclaimer

ORBIFLY MET'MAP TEAM :

Programmazione e sviluppo : Alexandra Zaïnal
Concezione e sviluppo : Baudouin d'Aumeries
Co-Programmazione e sviluppo : Marc-Olivier Méhu
Supporto tecnico e logistico : Manuel Goepfert
Aiuto per la traduzione : Arnaldo La Scala

Contatto : metmap@orbifly.com




FONTI E CREDITI :

   NOAA